Lutcher, Louisiana
Current Conditions -  °F | °C
As of 11:15 PM on Wednesday 22 Oct 2014 (Local Time) from K1L0 Reporting Station
Clear Clear  
Wind Chill: 61°   Ceiling: Unl
Heat Index: 61°   Visibility: 10mi
Dew Point: 55°   Wind: 6mph
Humidity: 81%   Direction: 30°NNE
Pressure: 30.09"   Gusts: NA
Location:  30.04°N, 90.7°W
Report Text: K1L0 230415Z AUTO 03005KT 10SM CLR 16/13 A3009 RMK AO2 T01620129
Loading
Personal Weather Stations






























Interactive Weather Map New forecast layout! Learn more

10-Day Weather Forecast

Advertisements
Track Severe Weather on mobile